sensor_id;sensor_type;location;lat;lon;timestamp;temperature;humidity
68215;DHT22;55036;52.138;5.236;2023-08-01T00:00:10;17.70;92.40
68215;DHT22;55036;52.138;5.236;2023-08-01T00:02:38;17.70;92.50
68215;DHT22;55036;52.138;5.236;2023-08-01T00:05:06;17.80;92.40
68215;DHT22;55036;52.138;5.236;2023-08-01T00:07:32;17.80;92.50
68215;DHT22;55036;52.138;5.236;2023-08-01T00:10:03;17.80;92.40
68215;DHT22;55036;52.138;5.236;2023-08-01T00:12:30;17.80;92.40
68215;DHT22;55036;52.138;5.236;2023-08-01T00:14:57;17.90;92.40
68215;DHT22;55036;52.138;5.236;2023-08-01T00:17:24;17.90;92.40
68215;DHT22;55036;52.138;5.236;2023-08-01T00:19:51;17.90;92.30
68215;DHT22;55036;52.138;5.236;2023-08-01T00:22:18;17.80;92.20
68215;DHT22;55036;52.138;5.236;2023-08-01T00:24:44;17.80;92.40
68215;DHT22;55036;52.138;5.236;2023-08-01T00:27:14;17.80;92.30
68215;DHT22;55036;52.138;5.236;2023-08-01T00:29:41;17.80;92.30
68215;DHT22;55036;52.138;5.236;2023-08-01T00:32:08;17.80;92.30
68215;DHT22;55036;52.138;5.236;2023-08-01T00:34:35;17.80;92.30
68215;DHT22;55036;52.138;5.236;2023-08-01T00:37:02;17.80;92.30
68215;DHT22;55036;52.138;5.236;2023-08-01T00:39:29;17.80;92.20
68215;DHT22;55036;52.138;5.236;2023-08-01T00:41:55;17.80;92.20
68215;DHT22;55036;52.138;5.236;2023-08-01T01:19:34;17.50;91.90
68215;DHT22;55036;52.138;5.236;2023-08-01T01:22:03;17.50;91.90
68215;DHT22;55036;52.138;5.236;2023-08-01T01:24:32;17.50;92.00
68215;DHT22;55036;52.138;5.236;2023-08-01T01:27:01;17.50;91.90
68215;DHT22;55036;52.138;5.236;2023-08-01T01:29:32;17.50;91.90
68215;DHT22;55036;52.138;5.236;2023-08-01T01:32:00;17.40;92.00
68215;DHT22;55036;52.138;5.236;2023-08-01T01:34:28;17.40;92.00
68215;DHT22;55036;52.138;5.236;2023-08-01T01:36:54;17.40;92.10
68215;DHT22;55036;52.138;5.236;2023-08-01T01:39:21;17.40;92.10
68215;DHT22;55036;52.138;5.236;2023-08-01T01:41:48;17.40;92.00
68215;DHT22;55036;52.138;5.236;2023-08-01T01:44:15;17.40;91.90
68215;DHT22;55036;52.138;5.236;2023-08-01T01:46:41;17.40;92.00
68215;DHT22;55036;52.138;5.236;2023-08-01T01:49:09;17.40;91.90
68215;DHT22;55036;52.138;5.236;2023-08-01T01:51:35;17.40;92.00
68215;DHT22;55036;52.138;5.236;2023-08-01T01:54:02;17.40;91.90
68215;DHT22;55036;52.138;5.236;2023-08-01T01:56:29;17.30;91.90
68215;DHT22;55036;52.138;5.236;2023-08-01T01:58:56;17.30;92.30
68215;DHT22;55036;52.138;5.236;2023-08-01T02:01:23;17.30;91.70
68215;DHT22;55036;52.138;5.236;2023-08-01T02:03:49;17.30;91.80
68215;DHT22;55036;52.138;5.236;2023-08-01T02:06:16;17.30;91.80
68215;DHT22;55036;52.138;5.236;2023-08-01T02:08:43;17.20;91.80
68215;DHT22;55036;52.138;5.236;2023-08-01T02:11:10;17.20;91.80
68215;DHT22;55036;52.138;5.236;2023-08-01T02:13:36;17.20;91.80
68215;DHT22;55036;52.138;5.236;2023-08-01T02:16:03;17.30;92.00
68215;DHT22;55036;52.138;5.236;2023-08-01T02:18:30;17.30;92.00
68215;DHT22;55036;52.138;5.236;2023-08-01T02:20:57;17.30;92.00
68215;DHT22;55036;52.138;5.236;2023-08-01T02:23:24;17.30;91.80
68215;DHT22;55036;52.138;5.236;2023-08-01T02:25:51;17.30;92.10
68215;DHT22;55036;52.138;5.236;2023-08-01T02:28:18;17.30;91.90
68215;DHT22;55036;52.138;5.236;2023-08-01T02:30:45;17.20;92.30
68215;DHT22;55036;52.138;5.236;2023-08-01T02:33:11;17.10;92.80
68215;DHT22;55036;52.138;5.236;2023-08-01T02:35:38;17.00;93.00
68215;DHT22;55036;52.138;5.236;2023-08-01T02:38:05;17.10;93.00
68215;DHT22;55036;52.138;5.236;2023-08-01T02:40:32;17.00;93.10
68215;DHT22;55036;52.138;5.236;2023-08-01T02:42:58;17.00;93.10
68215;DHT22;55036;52.138;5.236;2023-08-01T02:45:25;17.10;93.10
68215;DHT22;55036;52.138;5.236;2023-08-01T02:47:52;17.10;93.00
68215;DHT22;55036;52.138;5.236;2023-08-01T02:50:21;17.20;93.00
68215;DHT22;55036;52.138;5.236;2023-08-01T02:52:47;17.10;93.10
68215;DHT22;55036;52.138;5.236;2023-08-01T02:55:14;17.10;93.00
68215;DHT22;55036;52.138;5.236;2023-08-01T02:57:41;17.10;92.90
68215;DHT22;55036;52.138;5.236;2023-08-01T03:00:08;17.10;92.80
68215;DHT22;55036;52.138;5.236;2023-08-01T03:02:38;17.20;92.90
68215;DHT22;55036;52.138;5.236;2023-08-01T03:05:07;17.20;92.70
68215;DHT22;55036;52.138;5.236;2023-08-01T03:07:34;17.20;92.80
68215;DHT22;55036;52.138;5.236;2023-08-01T03:10:01;17.20;92.70
68215;DHT22;55036;52.138;5.236;2023-08-01T03:12:28;17.20;92.60
68215;DHT22;55036;52.138;5.236;2023-08-01T03:14:55;17.20;92.60
68215;DHT22;55036;52.138;5.236;2023-08-01T03:17:22;17.20;92.50
68215;DHT22;55036;52.138;5.236;2023-08-01T03:19:48;17.10;92.70
68215;DHT22;55036;52.138;5.236;2023-08-01T03:22:16;17.10;92.80
68215;DHT22;55036;52.138;5.236;2023-08-01T03:24:43;17.10;92.90
68215;DHT22;55036;52.138;5.236;2023-08-01T03:27:10;17.10;92.90
68215;DHT22;55036;52.138;5.236;2023-08-01T03:29:37;17.10;93.00
68215;DHT22;55036;52.138;5.236;2023-08-01T03:32:04;17.10;92.90
68215;DHT22;55036;52.138;5.236;2023-08-01T03:34:31;17.20;92.90
68215;DHT22;55036;52.138;5.236;2023-08-01T03:36:58;17.10;92.90
68215;DHT22;55036;52.138;5.236;2023-08-01T03:39:24;17.10;92.90
68215;DHT22;55036;52.138;5.236;2023-08-01T03:41:51;17.10;92.90
68215;DHT22;55036;52.138;5.236;2023-08-01T03:44:18;17.20;93.00
68215;DHT22;55036;52.138;5.236;2023-08-01T03:46:45;17.20;93.00
68215;DHT22;55036;52.138;5.236;2023-08-01T03:49:13;17.20;93.00
68215;DHT22;55036;52.138;5.236;2023-08-01T03:51:40;17.20;92.90
68215;DHT22;55036;52.138;5.236;2023-08-01T03:54:07;17.20;93.00
68215;DHT22;55036;52.138;5.236;2023-08-01T03:56:39;17.10;92.90
68215;DHT22;55036;52.138;5.236;2023-08-01T03:59:14;17.10;93.10
68215;DHT22;55036;52.138;5.236;2023-08-01T04:01:42;17.10;93.10
68215;DHT22;55036;52.138;5.236;2023-08-01T04:04:09;17.10;93.30
68215;DHT22;55036;52.138;5.236;2023-08-01T04:06:36;17.10;93.30
68215;DHT22;55036;52.138;5.236;2023-08-01T04:09:04;17.20;93.20
68215;DHT22;55036;52.138;5.236;2023-08-01T04:11:33;17.30;93.20
68215;DHT22;55036;52.138;5.236;2023-08-01T04:13:59;17.30;93.20
68215;DHT22;55036;52.138;5.236;2023-08-01T04:16:26;17.30;93.10
68215;DHT22;55036;52.138;5.236;2023-08-01T04:18:53;17.30;93.20
68215;DHT22;55036;52.138;5.236;2023-08-01T04:21:20;17.30;93.20
68215;DHT22;55036;52.138;5.236;2023-08-01T04:23:46;17.30;93.20
68215;DHT22;55036;52.138;5.236;2023-08-01T04:26:13;17.20;93.40
68215;DHT22;55036;52.138;5.236;2023-08-01T04:28:40;17.20;93.50
68215;DHT22;55036;52.138;5.236;2023-08-01T04:31:07;17.20;93.70
68215;DHT22;55036;52.138;5.236;2023-08-01T04:33:33;17.20;93.80
68215;DHT22;55036;52.138;5.236;2023-08-01T04:36:00;17.20;94.00
68215;DHT22;55036;52.138;5.236;2023-08-01T04:38:28;17.20;94.30
68215;DHT22;55036;52.138;5.236;2023-08-01T04:40:55;17.20;94.40
68215;DHT22;55036;52.138;5.236;2023-08-01T04:43:22;17.30;94.40
68215;DHT22;55036;52.138;5.236;2023-08-01T04:45:48;17.30;94.30
68215;DHT22;55036;52.138;5.236;2023-08-01T04:48:15;17.40;94.30
68215;DHT22;55036;52.138;5.236;2023-08-01T04:50:42;17.40;94.10
68215;DHT22;55036;52.138;5.236;2023-08-01T04:53:09;17.40;94.30
68215;DHT22;55036;52.138;5.236;2023-08-01T04:55:35;17.50;94.30
68215;DHT22;55036;52.138;5.236;2023-08-01T04:58:02;17.60;94.40
68215;DHT22;55036;52.138;5.236;2023-08-01T05:00:29;17.70;94.30
68215;DHT22;55036;52.138;5.236;2023-08-01T05:02:56;17.70;94.30
68215;DHT22;55036;52.138;5.236;2023-08-01T05:05:23;17.80;94.20
68215;DHT22;55036;52.138;5.236;2023-08-01T05:07:50;17.70;94.30
68215;DHT22;55036;52.138;5.236;2023-08-01T05:10:16;17.70;94.20
68215;DHT22;55036;52.138;5.236;2023-08-01T05:12:43;17.70;93.80
68215;DHT22;55036;52.138;5.236;2023-08-01T05:15:10;17.70;93.90
68215;DHT22;55036;52.138;5.236;2023-08-01T05:17:37;17.60;94.40
68215;DHT22;55036;52.138;5.236;2023-08-01T05:20:04;17.60;94.30
68215;DHT22;55036;52.138;5.236;2023-08-01T05:22:31;17.60;94.50
68215;DHT22;55036;52.138;5.236;2023-08-01T05:24:58;17.60;95.00
68215;DHT22;55036;52.138;5.236;2023-08-01T05:27:25;17.60;94.60
68215;DHT22;55036;52.138;5.236;2023-08-01T05:29:51;17.70;94.50
68215;DHT22;55036;52.138;5.236;2023-08-01T05:32:18;17.70;94.40
68215;DHT22;55036;52.138;5.236;2023-08-01T05:34:45;17.70;93.80
68215;DHT22;55036;52.138;5.236;2023-08-01T05:37:11;17.60;94.30
68215;DHT22;55036;52.138;5.236;2023-08-01T05:39:38;17.60;94.90
68215;DHT22;55036;52.138;5.236;2023-08-01T05:42:05;17.60;94.80
68215;DHT22;55036;52.138;5.236;2023-08-01T05:44:35;17.70;95.00
68215;DHT22;55036;52.138;5.236;2023-08-01T05:47:01;17.90;94.60
68215;DHT22;55036;52.138;5.236;2023-08-01T05:49:28;17.90;94.60
68215;DHT22;55036;52.138;5.236;2023-08-01T05:51:56;18.00;94.40
68215;DHT22;55036;52.138;5.236;2023-08-01T05:54:23;18.00;94.80
68215;DHT22;55036;52.138;5.236;2023-08-01T05:56:50;17.90;94.30
68215;DHT22;55036;52.138;5.236;2023-08-01T05:59:17;18.00;93.90
68215;DHT22;55036;52.138;5.236;2023-08-01T06:01:44;18.10;94.30
68215;DHT22;55036;52.138;5.236;2023-08-01T06:04:11;18.20;94.50
68215;DHT22;55036;52.138;5.236;2023-08-01T06:06:38;18.40;94.90
68215;DHT22;55036;52.138;5.236;2023-08-01T06:09:05;18.50;93.90
68215;DHT22;55036;52.138;5.236;2023-08-01T06:11:31;18.60;93.70
68215;DHT22;55036;52.138;5.236;2023-08-01T06:14:00;18.70;93.80
68215;DHT22;55036;52.138;5.236;2023-08-01T06:16:27;18.80;93.20
68215;DHT22;55036;52.138;5.236;2023-08-01T06:18:53;18.80;92.60
68215;DHT22;55036;52.138;5.236;2023-08-01T06:21:20;18.80;92.80
68215;DHT22;55036;52.138;5.236;2023-08-01T06:23:47;18.80;92.50
68215;DHT22;55036;52.138;5.236;2023-08-01T06:26:14;18.80;92.30
68215;DHT22;55036;52.138;5.236;2023-08-01T06:28:42;18.80;92.40
68215;DHT22;55036;52.138;5.236;2023-08-01T06:31:09;18.90;93.00
68215;DHT22;55036;52.138;5.236;2023-08-01T06:33:35;19.10;92.90
68215;DHT22;55036;52.138;5.236;2023-08-01T06:36:02;19.30;91.90
68215;DHT22;55036;52.138;5.236;2023-08-01T06:38:29;19.30;91.90
68215;DHT22;55036;52.138;5.236;2023-08-01T06:40:56;19.50;91.30
68215;DHT22;55036;52.138;5.236;2023-08-01T06:43:23;19.40;91.10
68215;DHT22;55036;52.138;5.236;2023-08-01T06:45:51;19.50;91.00
68215;DHT22;55036;52.138;5.236;2023-08-01T06:48:18;19.70;90.90
68215;DHT22;55036;52.138;5.236;2023-08-01T06:50:44;19.70;90.40
68215;DHT22;55036;52.138;5.236;2023-08-01T06:53:11;19.70;90.40
68215;DHT22;55036;52.138;5.236;2023-08-01T06:55:38;19.80;89.80
68215;DHT22;55036;52.138;5.236;2023-08-01T06:58:06;19.70;87.90
68215;DHT22;55036;52.138;5.236;2023-08-01T07:00:32;19.80;89.50
68215;DHT22;55036;52.138;5.236;2023-08-01T07:02:59;19.70;86.50
68215;DHT22;55036;52.138;5.236;2023-08-01T07:05:26;19.60;88.70
68215;DHT22;55036;52.138;5.236;2023-08-01T07:07:53;19.50;88.20
68215;DHT22;55036;52.138;5.236;2023-08-01T07:10:20;19.60;88.70
68215;DHT22;55036;52.138;5.236;2023-08-01T07:12:47;19.60;86.90
68215;DHT22;55036;52.138;5.236;2023-08-01T07:15:14;19.60;88.20
68215;DHT22;55036;52.138;5.236;2023-08-01T07:17:40;19.50;88.00
68215;DHT22;55036;52.138;5.236;2023-08-01T07:20:08;19.60;88.00
68215;DHT22;55036;52.138;5.236;2023-08-01T07:22:34;19.50;87.40
68215;DHT22;55036;52.138;5.236;2023-08-01T07:25:01;19.40;87.10
68215;DHT22;55036;52.138;5.236;2023-08-01T07:27:29;19.30;86.60
68215;DHT22;55036;52.138;5.236;2023-08-01T07:29:56;19.10;86.30
68215;DHT22;55036;52.138;5.236;2023-08-01T07:32:22;19.10;88.50
68215;DHT22;55036;52.138;5.236;2023-08-01T07:34:49;19.30;89.70
68215;DHT22;55036;52.138;5.236;2023-08-01T07:37:16;19.40;89.80
68215;DHT22;55036;52.138;5.236;2023-08-01T07:39:43;19.50;88.40
68215;DHT22;55036;52.138;5.236;2023-08-01T07:42:09;19.20;88.40
68215;DHT22;55036;52.138;5.236;2023-08-01T07:44:36;19.00;88.00
68215;DHT22;55036;52.138;5.236;2023-08-01T07:47:03;18.60;88.50
68215;DHT22;55036;52.138;5.236;2023-08-01T07:49:30;18.50;89.00
68215;DHT22;55036;52.138;5.236;2023-08-01T07:51:57;18.50;89.10
68215;DHT22;55036;52.138;5.236;2023-08-01T07:54:24;18.60;90.70
68215;DHT22;55036;52.138;5.236;2023-08-01T07:56:51;18.90;91.00
68215;DHT22;55036;52.138;5.236;2023-08-01T07:59:17;19.20;91.00
68215;DHT22;55036;52.138;5.236;2023-08-01T08:01:44;19.60;90.10
68215;DHT22;55036;52.138;5.236;2023-08-01T08:04:11;19.80;89.40
68215;DHT22;55036;52.138;5.236;2023-08-01T08:06:38;20.00;86.60
68215;DHT22;55036;52.138;5.236;2023-08-01T08:09:05;20.00;86.80
68215;DHT22;55036;52.138;5.236;2023-08-01T08:11:33;19.80;86.20
68215;DHT22;55036;52.138;5.236;2023-08-01T08:14:00;19.60;84.50
68215;DHT22;55036;52.138;5.236;2023-08-01T08:16:26;19.40;84.20
68215;DHT22;55036;52.138;5.236;2023-08-01T08:18:53;19.30;84.80
68215;DHT22;55036;52.138;5.236;2023-08-01T08:21:20;19.40;84.60
68215;DHT22;55036;52.138;5.236;2023-08-01T08:23:47;19.40;84.80
68215;DHT22;55036;52.138;5.236;2023-08-01T08:26:14;19.60;85.30
68215;DHT22;55036;52.138;5.236;2023-08-01T08:28:40;19.80;84.30
68215;DHT22;55036;52.138;5.236;2023-08-01T08:31:09;19.80;83.40
68215;DHT22;55036;52.138;5.236;2023-08-01T08:33:35;19.80;82.70
68215;DHT22;55036;52.138;5.236;2023-08-01T08:36:02;19.80;83.00
68215;DHT22;55036;52.138;5.236;2023-08-01T08:38:29;19.80;83.60
68215;DHT22;55036;52.138;5.236;2023-08-01T08:43:32;20.10;82.30
68215;DHT22;55036;52.138;5.236;2023-08-01T08:46:01;20.30;83.10
68215;DHT22;55036;52.138;5.236;2023-08-01T08:48:28;20.50;82.20
68215;DHT22;55036;52.138;5.236;2023-08-01T08:50:59;20.50;78.40
68215;DHT22;55036;52.138;5.236;2023-08-01T08:53:26;20.40;79.80
68215;DHT22;55036;52.138;5.236;2023-08-01T08:55:53;20.60;80.50
68215;DHT22;55036;52.138;5.236;2023-08-01T08:58:21;20.60;80.30
68215;DHT22;55036;52.138;5.236;2023-08-01T09:00:49;20.60;79.20
68215;DHT22;55036;52.138;5.236;2023-08-01T09:03:16;20.60;78.90
68215;DHT22;55036;52.138;5.236;2023-08-01T09:05:51;20.40;78.40
68215;DHT22;55036;52.138;5.236;2023-08-01T09:08:21;20.30;79.00
68215;DHT22;55036;52.138;5.236;2023-08-01T09:10:48;20.10;77.20
68215;DHT22;55036;52.138;5.236;2023-08-01T09:13:15;20.00;79.10
68215;DHT22;55036;52.138;5.236;2023-08-01T09:15:42;20.10;79.70
68215;DHT22;55036;52.138;5.236;2023-08-01T09:18:10;20.10;79.40
68215;DHT22;55036;52.138;5.236;2023-08-01T09:20:49;20.00;78.80
68215;DHT22;55036;52.138;5.236;2023-08-01T09:23:16;20.00;79.20
68215;DHT22;55036;52.138;5.236;2023-08-01T09:25:44;20.00;79.50
68215;DHT22;55036;52.138;5.236;2023-08-01T09:28:18;20.00;80.00
68215;DHT22;55036;52.138;5.236;2023-08-01T09:30:46;20.10;79.40
68215;DHT22;55036;52.138;5.236;2023-08-01T09:33:14;19.90;79.50
68215;DHT22;55036;52.138;5.236;2023-08-01T09:35:41;19.40;80.80
68215;DHT22;55036;52.138;5.236;2023-08-01T09:38:08;19.30;81.20
68215;DHT22;55036;52.138;5.236;2023-08-01T09:40:42;19.20;82.30
68215;DHT22;55036;52.138;5.236;2023-08-01T09:43:11;19.20;83.40
68215;DHT22;55036;52.138;5.236;2023-08-01T09:45:52;19.20;84.00
68215;DHT22;55036;52.138;5.236;2023-08-01T09:48:27;19.10;83.90
68215;DHT22;55036;52.138;5.236;2023-08-01T09:51:15;19.30;85.00
68215;DHT22;55036;52.138;5.236;2023-08-01T09:53:53;19.70;86.60
68215;DHT22;55036;52.138;5.236;2023-08-01T09:56:26;20.00;87.10
68215;DHT22;55036;52.138;5.236;2023-08-01T09:58:55;20.40;85.90
68215;DHT22;55036;52.138;5.236;2023-08-01T10:01:23;20.50;84.20
68215;DHT22;55036;52.138;5.236;2023-08-01T10:03:53;20.40;84.30
68215;DHT22;55036;52.138;5.236;2023-08-01T10:06:24;20.50;84.00
68215;DHT22;55036;52.138;5.236;2023-08-01T10:08:54;20.50;83.00
68215;DHT22;55036;52.138;5.236;2023-08-01T10:11:22;20.60;83.80
68215;DHT22;55036;52.138;5.236;2023-08-01T10:13:49;20.90;84.40
68215;DHT22;55036;52.138;5.236;2023-08-01T10:16:16;20.90;77.90
68215;DHT22;55036;52.138;5.236;2023-08-01T10:18:43;20.60;78.90
68215;DHT22;55036;52.138;5.236;2023-08-01T10:21:15;20.60;81.40
68215;DHT22;55036;52.138;5.236;2023-08-01T10:23:44;20.70;79.60
68215;DHT22;55036;52.138;5.236;2023-08-01T10:26:12;20.40;78.50
68215;DHT22;55036;52.138;5.236;2023-08-01T10:28:48;20.20;79.10
68215;DHT22;55036;52.138;5.236;2023-08-01T10:31:17;20.20;78.70
68215;DHT22;55036;52.138;5.236;2023-08-01T10:33:46;20.00;78.50
68215;DHT22;55036;52.138;5.236;2023-08-01T10:36:17;19.90;78.40
68215;DHT22;55036;52.138;5.236;2023-08-01T10:38:51;20.10;79.60
68215;DHT22;55036;52.138;5.236;2023-08-01T10:44:08;20.80;79.10
68215;DHT22;55036;52.138;5.236;2023-08-01T10:49:19;21.10;75.60
68215;DHT22;55036;52.138;5.236;2023-08-01T10:51:48;21.00;74.90
68215;DHT22;55036;52.138;5.236;2023-08-01T10:54:22;20.80;74.40
68215;DHT22;55036;52.138;5.236;2023-08-01T10:56:52;20.80;74.00
68215;DHT22;55036;52.138;5.236;2023-08-01T10:59:20;21.00;76.00
68215;DHT22;55036;52.138;5.236;2023-08-01T11:01:49;21.30;75.80
68215;DHT22;55036;52.138;5.236;2023-08-01T11:04:20;21.40;75.00
68215;DHT22;55036;52.138;5.236;2023-08-01T11:06:49;21.40;73.90
68215;DHT22;55036;52.138;5.236;2023-08-01T11:09:17;21.30;71.50
68215;DHT22;55036;52.138;5.236;2023-08-01T11:11:45;21.30;72.50
68215;DHT22;55036;52.138;5.236;2023-08-01T11:14:13;21.40;71.90
68215;DHT22;55036;52.138;5.236;2023-08-01T11:16:40;21.70;70.30
68215;DHT22;55036;52.138;5.236;2023-08-01T11:19:26;21.80;71.30
68215;DHT22;55036;52.138;5.236;2023-08-01T11:21:54;21.70;69.60
68215;DHT22;55036;52.138;5.236;2023-08-01T11:24:26;21.60;70.90
68215;DHT22;55036;52.138;5.236;2023-08-01T11:26:54;21.50;70.70
68215;DHT22;55036;52.138;5.236;2023-08-01T11:29:21;21.60;70.70
68215;DHT22;55036;52.138;5.236;2023-08-01T11:31:53;21.60;70.40
68215;DHT22;55036;52.138;5.236;2023-08-01T11:34:20;21.40;70.50
68215;DHT22;55036;52.138;5.236;2023-08-01T11:36:48;21.30;71.00
68215;DHT22;55036;52.138;5.236;2023-08-01T11:39:15;21.30;71.00
68215;DHT22;55036;52.138;5.236;2023-08-01T11:41:43;21.40;70.70
68215;DHT22;55036;52.138;5.236;2023-08-01T11:44:10;21.30;69.30
68215;DHT22;55036;52.138;5.236;2023-08-01T11:46:38;21.20;69.10
68215;DHT22;55036;52.138;5.236;2023-08-01T11:49:07;21.20;70.20
68215;DHT22;55036;52.138;5.236;2023-08-01T11:51:42;21.10;70.30
68215;DHT22;55036;52.138;5.236;2023-08-01T11:54:09;21.20;70.30
68215;DHT22;55036;52.138;5.236;2023-08-01T11:56:38;21.30;71.50
68215;DHT22;55036;52.138;5.236;2023-08-01T11:59:13;21.60;70.70
68215;DHT22;55036;52.138;5.236;2023-08-01T12:01:42;21.90;69.20
68215;DHT22;55036;52.138;5.236;2023-08-01T12:04:09;22.20;68.90
68215;DHT22;55036;52.138;5.236;2023-08-01T12:06:36;22.10;65.30
68215;DHT22;55036;52.138;5.236;2023-08-01T12:09:10;21.90;66.70
68215;DHT22;55036;52.138;5.236;2023-08-01T12:11:38;21.90;67.90
68215;DHT22;55036;52.138;5.236;2023-08-01T12:14:11;21.90;67.40
68215;DHT22;55036;52.138;5.236;2023-08-01T12:16:42;21.80;68.20
68215;DHT22;55036;52.138;5.236;2023-08-01T12:19:16;21.60;67.10
68215;DHT22;55036;52.138;5.236;2023-08-01T12:21:44;21.60;68.60
68215;DHT22;55036;52.138;5.236;2023-08-01T12:24:11;21.80;68.10
68215;DHT22;55036;52.138;5.236;2023-08-01T12:26:37;21.70;67.50
68215;DHT22;55036;52.138;5.236;2023-08-01T12:29:05;21.50;67.40
68215;DHT22;55036;52.138;5.236;2023-08-01T12:31:32;21.80;67.90
68215;DHT22;55036;52.138;5.236;2023-08-01T12:33:58;22.00;67.50
68215;DHT22;55036;52.138;5.236;2023-08-01T12:36:25;22.20;64.60
68215;DHT22;55036;52.138;5.236;2023-08-01T12:38:53;22.00;65.50
68215;DHT22;55036;52.138;5.236;2023-08-01T12:41:20;22.10;67.30
68215;DHT22;55036;52.138;5.236;2023-08-01T12:43:46;22.10;66.00
68215;DHT22;55036;52.138;5.236;2023-08-01T12:46:13;22.30;64.60
68215;DHT22;55036;52.138;5.236;2023-08-01T12:48:40;22.50;63.30
68215;DHT22;55036;52.138;5.236;2023-08-01T12:51:08;22.30;62.90
68215;DHT22;55036;52.138;5.236;2023-08-01T12:53:35;22.20;62.60
68215;DHT22;55036;52.138;5.236;2023-08-01T12:56:03;21.90;63.20
68215;DHT22;55036;52.138;5.236;2023-08-01T12:58:29;21.40;64.20
68215;DHT22;55036;52.138;5.236;2023-08-01T13:00:56;21.10;66.60
68215;DHT22;55036;52.138;5.236;2023-08-01T13:03:23;20.80;68.40
68215;DHT22;55036;52.138;5.236;2023-08-01T13:05:50;20.60;69.30
68215;DHT22;55036;52.138;5.236;2023-08-01T13:08:17;20.40;69.80
68215;DHT22;55036;52.138;5.236;2023-08-01T13:10:44;20.50;71.80
68215;DHT22;55036;52.138;5.236;2023-08-01T13:13:12;20.50;71.30
68215;DHT22;55036;52.138;5.236;2023-08-01T13:15:39;20.50;72.10
68215;DHT22;55036;52.138;5.236;2023-08-01T13:18:06;20.50;72.70
68215;DHT22;55036;52.138;5.236;2023-08-01T13:20:33;20.60;73.40
68215;DHT22;55036;52.138;5.236;2023-08-01T13:23:02;20.80;73.90
68215;DHT22;55036;52.138;5.236;2023-08-01T13:25:29;21.10;75.30
68215;DHT22;55036;52.138;5.236;2023-08-01T13:27:56;21.40;74.50
68215;DHT22;55036;52.138;5.236;2023-08-01T13:30:23;21.50;75.10
68215;DHT22;55036;52.138;5.236;2023-08-01T13:32:50;21.40;73.50
68215;DHT22;55036;52.138;5.236;2023-08-01T13:35:17;21.70;73.80
68215;DHT22;55036;52.138;5.236;2023-08-01T13:37:43;21.80;69.60
68215;DHT22;55036;52.138;5.236;2023-08-01T13:40:11;21.90;70.80
68215;DHT22;55036;52.138;5.236;2023-08-01T13:42:40;21.90;70.10
68215;DHT22;55036;52.138;5.236;2023-08-01T13:45:07;22.00;68.90
68215;DHT22;55036;52.138;5.236;2023-08-01T13:47:34;22.20;68.70
68215;DHT22;55036;52.138;5.236;2023-08-01T13:50:01;22.30;65.10
68215;DHT22;55036;52.138;5.236;2023-08-01T13:52:28;22.00;64.60
68215;DHT22;55036;52.138;5.236;2023-08-01T13:54:55;21.90;65.60
68215;DHT22;55036;52.138;5.236;2023-08-01T13:57:21;21.80;66.40
68215;DHT22;55036;52.138;5.236;2023-08-01T13:59:50;21.60;65.80
68215;DHT22;55036;52.138;5.236;2023-08-01T14:02:35;21.50;64.50
68215;DHT22;55036;52.138;5.236;2023-08-01T14:05:03;21.30;64.20
68215;DHT22;55036;52.138;5.236;2023-08-01T14:07:30;21.20;65.10
68215;DHT22;55036;52.138;5.236;2023-08-01T14:09:56;21.00;65.50
68215;DHT22;55036;52.138;5.236;2023-08-01T14:12:23;20.90;66.70
68215;DHT22;55036;52.138;5.236;2023-08-01T14:14:51;20.80;66.70
68215;DHT22;55036;52.138;5.236;2023-08-01T14:17:17;20.80;67.20
68215;DHT22;55036;52.138;5.236;2023-08-01T14:19:44;20.80;67.60
68215;DHT22;55036;52.138;5.236;2023-08-01T14:22:11;20.80;67.90
68215;DHT22;55036;52.138;5.236;2023-08-01T14:24:38;20.80;68.10
68215;DHT22;55036;52.138;5.236;2023-08-01T14:27:05;20.80;68.40
68215;DHT22;55036;52.138;5.236;2023-08-01T14:29:31;20.90;68.70
68215;DHT22;55036;52.138;5.236;2023-08-01T14:31:58;21.00;68.80
68215;DHT22;55036;52.138;5.236;2023-08-01T14:34:25;21.10;67.50
68215;DHT22;55036;52.138;5.236;2023-08-01T14:36:52;21.10;67.70
68215;DHT22;55036;52.138;5.236;2023-08-01T14:39:19;21.00;66.60
68215;DHT22;55036;52.138;5.236;2023-08-01T14:41:49;20.90;67.30
68215;DHT22;55036;52.138;5.236;2023-08-01T14:44:19;20.80;67.60
68215;DHT22;55036;52.138;5.236;2023-08-01T14:46:46;20.80;67.80
68215;DHT22;55036;52.138;5.236;2023-08-01T14:49:13;20.70;67.50
68215;DHT22;55036;52.138;5.236;2023-08-01T14:51:39;20.60;67.50
68215;DHT22;55036;52.138;5.236;2023-08-01T14:54:06;20.50;67.50
68215;DHT22;55036;52.138;5.236;2023-08-01T14:56:33;20.50;68.10
68215;DHT22;55036;52.138;5.236;2023-08-01T14:59:00;20.30;69.00
68215;DHT22;55036;52.138;5.236;2023-08-01T15:01:26;20.30;69.00
68215;DHT22;55036;52.138;5.236;2023-08-01T15:03:53;20.10;70.10
68215;DHT22;55036;52.138;5.236;2023-08-01T15:06:20;20.00;70.20
68215;DHT22;55036;52.138;5.236;2023-08-01T15:08:47;20.00;70.80
68215;DHT22;55036;52.138;5.236;2023-08-01T15:11:14;19.80;72.80
68215;DHT22;55036;52.138;5.236;2023-08-01T15:13:41;19.60;74.50
68215;DHT22;55036;52.138;5.236;2023-08-01T15:16:11;19.60;75.00
68215;DHT22;55036;52.138;5.236;2023-08-01T15:18:39;19.60;74.40
68215;DHT22;55036;52.138;5.236;2023-08-01T15:21:06;19.50;75.30
68215;DHT22;55036;52.138;5.236;2023-08-01T15:23:33;19.40;76.10
68215;DHT22;55036;52.138;5.236;2023-08-01T15:26:00;19.40;76.50
68215;DHT22;55036;52.138;5.236;2023-08-01T15:28:26;19.30;77.80
68215;DHT22;55036;52.138;5.236;2023-08-01T15:31:07;19.10;77.80
68215;DHT22;55036;52.138;5.236;2023-08-01T15:33:36;19.10;78.70
68215;DHT22;55036;52.138;5.236;2023-08-01T15:36:05;19.00;80.00
68215;DHT22;55036;52.138;5.236;2023-08-01T15:38:34;18.80;80.90
68215;DHT22;55036;52.138;5.236;2023-08-01T15:41:01;18.80;80.90
68215;DHT22;55036;52.138;5.236;2023-08-01T15:43:37;18.80;81.10
68215;DHT22;55036;52.138;5.236;2023-08-01T15:46:05;18.90;82.50
68215;DHT22;55036;52.138;5.236;2023-08-01T15:48:33;19.00;82.50
68215;DHT22;55036;52.138;5.236;2023-08-01T15:51:01;19.00;81.80
68215;DHT22;55036;52.138;5.236;2023-08-01T15:53:28;19.20;81.10
68215;DHT22;55036;52.138;5.236;2023-08-01T15:56:00;19.30;81.70
68215;DHT22;55036;52.138;5.236;2023-08-01T15:58:27;19.50;81.00
68215;DHT22;55036;52.138;5.236;2023-08-01T16:00:56;19.40;80.90
68215;DHT22;55036;52.138;5.236;2023-08-01T16:03:23;19.30;80.60
68215;DHT22;55036;52.138;5.236;2023-08-01T16:05:51;19.40;80.40
68215;DHT22;55036;52.138;5.236;2023-08-01T16:08:18;19.40;80.00
68215;DHT22;55036;52.138;5.236;2023-08-01T16:10:45;19.50;79.70
68215;DHT22;55036;52.138;5.236;2023-08-01T16:13:13;19.60;79.30
68215;DHT22;55036;52.138;5.236;2023-08-01T16:15:40;19.60;78.70